createdAt,value
2022-12-14T00:01:23.082Z,24.13
2022-12-14T00:04:23.522Z,18.55
2022-12-14T00:07:19.920Z,19.13
2022-12-14T00:10:09.805Z,21.70
2022-12-14T00:13:08.923Z,25.30
2022-12-14T00:16:00.252Z,20.15
2022-12-14T00:18:56.004Z,22.27
2022-12-14T00:21:46.130Z,21.35
2022-12-14T00:25:15.403Z,19.95
2022-12-14T00:28:08.255Z,18.90
2022-12-14T00:31:53.076Z,20.60
2022-12-14T00:34:13.071Z,20.73
2022-12-14T00:37:13.013Z,20.80
2022-12-14T00:40:19.583Z,24.00
2022-12-14T00:43:17.903Z,20.23
2022-12-14T00:46:07.235Z,20.15
2022-12-14T00:49:10.355Z,19.05
2022-12-14T00:52:05.255Z,18.77
2022-12-14T00:55:04.335Z,19.20
2022-12-14T00:58:08.580Z,21.02
2022-12-14T01:01:07.108Z,21.77
2022-12-14T01:04:24.489Z,17.77
2022-12-14T01:07:20.478Z,18.20
2022-12-14T01:10:17.794Z,17.90
2022-12-14T01:13:13.870Z,17.40
2022-12-14T01:16:20.276Z,17.80
2022-12-14T01:19:40.860Z,17.80
2022-12-14T01:22:29.099Z,18.20
2022-12-14T01:25:29.809Z,19.23
2022-12-14T01:28:20.508Z,20.08
2022-12-14T01:31:24.775Z,16.70
2022-12-14T01:34:13.060Z,16.45
2022-12-14T01:37:08.116Z,20.55
2022-12-14T01:40:03.897Z,18.15
2022-12-14T01:42:56.617Z,16.67
2022-12-14T01:45:47.397Z,17.67
2022-12-14T01:48:36.670Z,18.20
2022-12-14T01:51:38.824Z,21.17
2022-12-14T01:54:34.130Z,18.65
2022-12-14T01:57:34.971Z,19.92
2022-12-14T02:00:31.715Z,17.85
2022-12-14T02:03:42.494Z,17.17
2022-12-14T02:06:36.751Z,22.13
2022-12-14T02:09:34.433Z,17.88
2022-12-14T02:12:40.942Z,16.92
2022-12-14T02:15:38.066Z,19.67
2022-12-14T02:18:40.690Z,16.63
2022-12-14T02:22:12.148Z,19.80
2022-12-14T02:26:03.632Z,17.05
2022-12-14T02:29:48.806Z,15.45
2022-12-14T02:33:06.103Z,22.13
2022-12-14T02:36:45.161Z,17.50
2022-12-14T02:40:12.194Z,17.52
2022-12-14T02:43:47.531Z,22.17
2022-12-14T02:47:17.644Z,15.75
2022-12-14T02:50:27.159Z,16.88
2022-12-14T02:53:49.480Z,18.88
2022-12-14T02:59:56.906Z,18.20
2022-12-14T03:02:48.496Z,15.63
2022-12-14T03:05:36.813Z,16.92
2022-12-14T03:08:29.782Z,17.63
2022-12-14T03:11:32.208Z,17.10
2022-12-14T03:14:46.414Z,21.35
2022-12-14T03:20:28.983Z,16.92
2022-12-14T03:23:30.587Z,18.02
2022-12-14T03:26:47.716Z,19.92
2022-12-14T03:30:06.658Z,17.35
2022-12-14T03:33:01.416Z,19.35
2022-12-14T03:36:11.509Z,18.45
2022-12-14T03:39:05.474Z,18.48
2022-12-14T03:42:20.303Z,17.65
2022-12-14T03:45:22.769Z,19.27
2022-12-14T03:48:58.314Z,16.65
2022-12-14T03:52:07.293Z,19.30
2022-12-14T03:55:23.162Z,17.27
2022-12-14T03:58:29.201Z,16.75
2022-12-14T04:01:52.765Z,16.00
2022-12-14T04:05:30.990Z,19.33
2022-12-14T04:08:52.768Z,14.05
2022-12-14T04:12:24.717Z,16.23
2022-12-14T04:15:39.370Z,20.50
2022-12-14T04:18:59.541Z,17.00
2022-12-14T04:22:05.053Z,17.58
2022-12-14T04:26:00.593Z,14.73
2022-12-14T04:29:28.399Z,19.35
2022-12-14T04:32:27.497Z,18.17
2022-12-14T04:35:33.096Z,17.50
2022-12-14T04:38:34.257Z,16.33
2022-12-14T04:41:39.503Z,16.13
2022-12-14T04:45:19.444Z,15.65
2022-12-14T04:48:25.463Z,17.35
2022-12-14T04:51:34.239Z,17.05
2022-12-14T04:54:52.917Z,16.90
2022-12-14T04:57:47.199Z,18.83
2022-12-14T05:01:11.883Z,19.45
2022-12-14T05:04:27.573Z,15.20
2022-12-14T05:07:58.470Z,19.13
2022-12-14T05:11:30.470Z,17.98
2022-12-14T05:15:07.872Z,15.30
2022-12-14T05:18:19.792Z,22.25
2022-12-14T05:21:52.385Z,17.88
2022-12-14T05:28:30.761Z,18.83
2022-12-14T05:35:07.566Z,20.17
2022-12-14T05:38:04.511Z,18.40
2022-12-14T05:41:02.237Z,18.88
2022-12-14T05:44:03.058Z,17.10
2022-12-14T05:46:52.512Z,18.05
2022-12-14T05:49:41.695Z,15.20
2022-12-14T05:52:39.593Z,19.33
2022-12-14T05:55:55.415Z,18.17
2022-12-14T06:02:06.193Z,12.57
2022-12-14T06:05:11.221Z,18.30
2022-12-14T06:08:07.125Z,18.95
2022-12-14T06:11:14.008Z,18.05
2022-12-14T06:14:40.361Z,16.55
2022-12-14T06:21:47.068Z,21.40
2022-12-14T06:24:35.562Z,18.25
2022-12-14T06:27:27.007Z,18.20
2022-12-14T06:30:16.288Z,17.38
2022-12-14T06:33:08.843Z,14.93
2022-12-14T06:36:26.680Z,18.52
2022-12-14T06:39:17.416Z,19.10
2022-12-14T06:45:05.846Z,14.80
2022-12-14T06:47:57.536Z,19.05
2022-12-14T06:50:50.360Z,18.02
2022-12-14T06:53:38.939Z,16.03
2022-12-14T06:56:28.557Z,16.17
2022-12-14T06:59:18.051Z,18.58
2022-12-14T07:02:15.068Z,19.23
2022-12-14T07:05:11.122Z,17.33
2022-12-14T07:08:24.451Z,17.38
2022-12-14T07:11:15.302Z,18.40
2022-12-14T07:14:06.517Z,17.02
2022-12-14T07:16:58.200Z,19.48
2022-12-14T07:19:51.415Z,20.35
2022-12-14T07:22:41.241Z,13.90
2022-12-14T07:25:35.881Z,19.15
2022-12-14T07:28:37.178Z,27.00
2022-12-14T07:31:52.397Z,16.65
2022-12-14T07:34:57.534Z,19.40
2022-12-14T07:41:45.435Z,21.33
2022-12-14T07:45:35.735Z,17.77
2022-12-14T07:49:22.027Z,19.00
2022-12-14T07:52:42.780Z,19.73
2022-12-14T07:58:46.916Z,18.88
2022-12-14T08:01:42.390Z,16.83
2022-12-14T08:04:32.430Z,21.65
2022-12-14T08:07:32.363Z,18.55
2022-12-14T08:10:23.350Z,20.65
2022-12-14T08:13:11.725Z,22.30
2022-12-14T08:16:11.675Z,20.50
2022-12-14T08:19:01.587Z,18.67
2022-12-14T08:21:52.019Z,18.77
2022-12-14T08:25:08.141Z,19.10
2022-12-14T08:28:06.174Z,17.23
2022-12-14T08:30:57.241Z,37.00
2022-12-14T08:33:49.500Z,21.13
2022-12-14T08:36:49.008Z,20.67
2022-12-14T08:39:47.767Z,24.70
2022-12-14T08:42:38.224Z,24.52
2022-12-14T08:45:33.267Z,23.23
2022-12-14T08:48:21.841Z,22.35
2022-12-14T08:51:14.719Z,22.75
2022-12-14T08:54:07.144Z,30.33
2022-12-14T08:57:08.011Z,26.50
2022-12-14T09:00:01.609Z,24.60
2022-12-14T09:02:55.331Z,20.77
2022-12-14T09:06:15.843Z,26.23
2022-12-14T09:09:15.998Z,26.75
2022-12-14T09:12:10.267Z,21.98
2022-12-14T09:53:05.252Z,28.15
2022-12-14T09:56:15.779Z,25.77
2022-12-14T09:59:25.017Z,25.83
2022-12-14T10:03:07.128Z,31.10
2022-12-14T10:06:30.186Z,26.15
2022-12-14T10:10:01.511Z,31.60
2022-12-14T10:13:39.132Z,32.78
2022-12-14T10:17:10.225Z,29.67
2022-12-14T10:20:16.186Z,28.15
2022-12-14T10:23:05.829Z,28.27
2022-12-14T10:26:09.519Z,26.60
2022-12-14T10:29:23.892Z,29.70
2022-12-14T10:32:39.832Z,28.83
2022-12-14T10:35:52.699Z,29.15
2022-12-14T10:39:09.866Z,26.05
2022-12-14T10:42:41.815Z,27.05
2022-12-14T10:45:47.320Z,30.80
2022-12-14T10:48:56.628Z,26.85
2022-12-14T10:52:21.358Z,28.75
2022-12-14T10:55:42.114Z,33.03
2022-12-14T10:58:31.168Z,25.20
2022-12-14T11:01:26.879Z,26.70
2022-12-14T11:04:43.772Z,28.92
2022-12-14T11:07:37.491Z,26.23
2022-12-14T11:10:37.649Z,31.40
2022-12-14T11:13:29.651Z,31.05
2022-12-14T11:16:38.893Z,31.00
2022-12-14T11:19:30.495Z,30.55
2022-12-14T11:22:36.103Z,29.77
2022-12-14T11:25:42.280Z,30.00
2022-12-14T11:29:05.951Z,33.35
2022-12-14T11:32:02.913Z,31.50
2022-12-14T11:34:59.755Z,27.17
2022-12-14T11:37:59.286Z,25.30
2022-12-14T11:40:50.336Z,28.05
2022-12-14T11:43:42.984Z,22.83
2022-12-14T11:46:57.429Z,34.72
2022-12-14T11:49:54.411Z,25.92
2022-12-14T11:53:18.024Z,27.15
2022-12-14T11:56:27.736Z,25.70
2022-12-14T11:59:27.175Z,26.40
2022-12-14T12:02:32.733Z,28.75
2022-12-14T12:05:39.812Z,25.38
2022-12-14T12:08:51.811Z,27.50
2022-12-14T14:47:58.289Z,22.00
2022-12-14T14:50:49.247Z,26.85
2022-12-14T14:53:40.979Z,24.00
2022-12-14T14:56:46.135Z,29.13
2022-12-14T14:59:50.967Z,27.77
2022-12-14T15:03:41.530Z,22.95
2022-12-14T15:06:44.469Z,26.33
2022-12-14T15:10:33.946Z,23.98
2022-12-14T15:13:35.432Z,25.45
2022-12-14T15:16:59.572Z,29.17
2022-12-14T15:23:11.803Z,28.50
2022-12-14T15:26:05.389Z,23.58
2022-12-14T15:29:19.464Z,25.67
2022-12-14T15:32:51.481Z,28.80
2022-12-14T17:45:15.281Z,40.40
2022-12-14T18:32:04.631Z,36.90
2022-12-14T18:35:29.497Z,38.15
2022-12-14T18:38:29.971Z,40.70
2022-12-14T18:42:16.632Z,38.13
2022-12-14T18:46:09.665Z,38.95
2022-12-14T18:49:46.409Z,38.65
2022-12-14T18:52:48.700Z,40.72
2022-12-14T18:55:56.796Z,42.53
2022-12-14T18:59:24.425Z,44.30
2022-12-14T19:02:26.501Z,40.05
2022-12-14T19:05:43.719Z,42.40
2022-12-14T20:10:38.982Z,45.92
2022-12-14T20:18:21.759Z,44.90
2022-12-14T20:32:50.339Z,50.63
2022-12-14T20:48:29.031Z,50.80
2022-12-14T20:59:09.820Z,30.90
2022-12-14T21:36:18.023Z,40.00
2022-12-14T21:44:07.757Z,44.25
2022-12-14T21:47:49.552Z,47.05
2022-12-14T21:54:08.375Z,41.83
2022-12-14T21:57:22.996Z,42.08
2022-12-14T22:11:37.638Z,40.45
2022-12-14T22:18:48.437Z,39.97
2022-12-14T22:25:08.877Z,46.30
2022-12-14T22:39:21.048Z,44.22
2022-12-14T22:47:57.097Z,39.45
2022-12-14T22:51:35.299Z,45.00
2022-12-14T22:58:01.348Z,47.85
2022-12-14T23:00:59.063Z,44.47
2022-12-14T23:04:06.741Z,48.85
2022-12-14T23:07:13.297Z,45.92
2022-12-14T23:10:39.451Z,49.10
2022-12-14T23:14:08.033Z,52.75
2022-12-14T23:24:40.950Z,50.08
2022-12-14T23:36:25.693Z,53.40
2022-12-14T23:39:44.257Z,53.40
2022-12-14T23:43:50.112Z,47.58
2022-12-14T23:51:06.745Z,47.47
2022-12-14T23:54:20.583Z,45.15
2022-12-14T23:57:31.518Z,45.33
